createdAt,value
2017-11-25T00:01:07.341Z,97482.50
2017-11-25T00:03:35.637Z,97481.23
2017-11-25T00:06:04.700Z,97478.30
2017-11-25T00:08:32.994Z,97471.92
2017-11-25T00:11:02.046Z,97479.02
2017-11-25T00:13:30.333Z,97478.20
2017-11-25T00:15:58.622Z,97478.22
2017-11-25T00:18:26.945Z,97473.50
2017-11-25T00:20:55.243Z,97469.85
2017-11-25T00:23:23.534Z,97457.52
2017-11-25T00:25:51.814Z,97449.90
2017-11-25T00:28:20.095Z,97441.77
2017-11-25T00:30:48.377Z,97434.92
2017-11-25T00:33:16.663Z,97434.00
2017-11-25T00:35:44.961Z,97427.97
2017-11-25T00:38:15.020Z,97430.53
2017-11-25T00:40:43.306Z,97421.19
2017-11-25T00:43:11.594Z,97420.50
2017-11-25T00:45:39.888Z,97406.52
2017-11-25T00:48:08.179Z,97411.55
2017-11-25T00:50:37.234Z,97406.37
2017-11-25T00:53:05.998Z,97411.33
2017-11-25T00:55:34.291Z,97406.62
2017-11-25T00:58:02.586Z,97401.07
2017-11-25T01:00:30.882Z,97398.08
2017-11-25T01:02:59.170Z,97390.84
2017-11-25T01:05:28.225Z,97390.35
2017-11-25T01:07:56.511Z,97373.66
2017-11-25T01:10:24.795Z,97375.28
2017-11-25T01:12:53.090Z,97369.27
2017-11-25T01:15:22.137Z,97367.16
2017-11-25T01:17:50.414Z,97359.52
2017-11-25T01:20:18.702Z,97356.44
2017-11-25T01:22:47.018Z,97356.87
2017-11-25T01:25:15.319Z,97351.86
2017-11-25T01:27:43.605Z,97347.20
2017-11-25T01:30:11.890Z,97343.78
2017-11-25T01:32:40.168Z,97341.28
2017-11-25T01:35:08.514Z,97351.66
2017-11-25T01:37:36.801Z,97356.52
2017-11-25T01:40:05.086Z,97349.77
2017-11-25T01:42:33.373Z,97348.88
2017-11-25T01:45:01.676Z,97349.04
2017-11-25T01:47:29.973Z,97344.42
2017-11-25T01:49:59.976Z,97335.41
2017-11-25T01:52:28.277Z,97328.53
2017-11-25T01:54:57.338Z,97324.22
2017-11-25T01:57:25.706Z,97318.66
2017-11-25T01:59:53.994Z,97322.28
2017-11-25T02:02:22.291Z,97323.06
2017-11-25T02:04:50.583Z,97320.11
2017-11-25T02:07:18.889Z,97316.59
2017-11-25T02:09:47.146Z,97316.06
2017-11-25T02:12:15.422Z,97314.73
2017-11-25T02:14:43.922Z,97306.21
2017-11-25T02:17:12.206Z,97301.48
2017-11-25T02:19:41.020Z,97291.73
2017-11-25T02:22:09.301Z,97292.17
2017-11-25T02:24:37.616Z,97292.34
2017-11-25T02:27:05.900Z,97301.91
2017-11-25T02:29:34.194Z,97293.81
2017-11-25T02:32:02.485Z,97289.84
2017-11-25T02:34:30.779Z,97276.53
2017-11-25T02:36:59.083Z,97271.25
2017-11-25T02:39:28.147Z,97249.47
2017-11-25T02:41:56.442Z,97246.41
2017-11-25T02:44:24.730Z,97238.59
2017-11-25T02:46:53.026Z,97227.05
2017-11-25T02:49:21.308Z,97230.32
2017-11-25T02:51:50.376Z,97224.28
2017-11-25T02:54:19.423Z,97227.23
2017-11-25T02:56:47.723Z,97218.31
2017-11-25T02:59:16.008Z,97214.87
2017-11-25T03:01:44.299Z,97213.17
2017-11-25T03:04:12.627Z,97208.77
2017-11-25T03:06:41.854Z,97206.48
2017-11-25T03:09:10.133Z,97200.09
2017-11-25T03:11:38.434Z,97181.66
2017-11-25T03:14:06.714Z,97186.27
2017-11-25T03:16:35.001Z,97188.28
2017-11-25T03:19:03.298Z,97194.97
2017-11-25T03:21:31.596Z,97188.54
2017-11-25T03:23:59.878Z,97191.45
2017-11-25T03:26:28.161Z,97184.59
2017-11-25T03:28:56.472Z,97181.59
2017-11-25T03:31:25.539Z,97168.73
2017-11-25T03:33:53.846Z,97166.58
2017-11-25T03:36:22.130Z,97166.56
2017-11-25T03:38:50.442Z,97160.38
2017-11-25T03:41:18.732Z,97161.95
2017-11-25T03:43:47.018Z,97164.46
2017-11-25T03:46:15.297Z,97158.31
2017-11-25T03:48:43.588Z,97167.00
2017-11-25T03:51:12.285Z,97175.89
2017-11-25T03:53:41.334Z,97170.55
2017-11-25T03:56:09.615Z,97172.01
2017-11-25T03:58:37.902Z,97168.85
2017-11-25T04:01:06.207Z,97160.23
2017-11-25T04:03:34.542Z,97152.03
2017-11-25T04:06:02.824Z,97146.77
2017-11-25T04:08:31.107Z,97147.47
2017-11-25T04:10:59.390Z,97138.90
2017-11-25T04:13:28.344Z,97146.14
2017-11-25T04:15:57.486Z,97135.97
2017-11-25T04:18:25.748Z,97138.93
2017-11-25T04:20:54.018Z,97129.13
2017-11-25T04:23:22.287Z,97133.77
2017-11-25T04:25:50.561Z,97126.02
2017-11-25T04:28:18.819Z,97118.30
2017-11-25T04:30:47.079Z,97104.17
2017-11-25T04:33:15.366Z,97108.19
2017-11-25T04:35:43.639Z,97101.97
2017-11-25T04:38:12.003Z,97093.59
2017-11-25T04:40:40.283Z,97090.03
2017-11-25T04:43:08.572Z,97072.10
2017-11-25T04:45:36.852Z,97069.89
2017-11-25T04:48:05.141Z,97061.27
2017-11-25T04:50:33.433Z,97057.00
2017-11-25T04:53:01.727Z,97062.17
2017-11-25T04:55:30.018Z,97066.30
2017-11-25T04:57:58.314Z,97064.52
2017-11-25T05:00:26.604Z,97066.09
2017-11-25T05:02:54.891Z,97065.28
2017-11-25T05:05:23.182Z,97062.14
2017-11-25T05:07:51.483Z,97062.40
2017-11-25T05:10:19.766Z,97052.91
2017-11-25T05:12:48.062Z,97052.27
2017-11-25T05:15:17.146Z,97045.95
2017-11-25T05:17:46.198Z,97036.50
2017-11-25T05:20:14.494Z,97039.43
2017-11-25T05:22:42.793Z,97028.72
2017-11-25T05:25:11.117Z,97026.84
2017-11-25T05:27:39.412Z,97036.36
2017-11-25T05:30:07.683Z,97035.94
2017-11-25T05:32:35.946Z,97034.70
2017-11-25T05:35:04.230Z,97036.08
2017-11-25T05:37:32.499Z,97042.84
2017-11-25T05:40:00.769Z,97037.42
2017-11-25T05:42:29.050Z,97043.37
2017-11-25T05:44:57.341Z,97046.63
2017-11-25T05:47:25.629Z,97047.91
2017-11-25T05:49:53.924Z,97057.36
2017-11-25T05:52:22.228Z,97063.09
2017-11-25T05:54:50.522Z,97070.93
2017-11-25T05:57:19.523Z,97070.12
2017-11-25T05:59:48.579Z,97073.38
2017-11-25T06:02:17.636Z,97075.15
2017-11-25T06:04:45.917Z,97077.27
2017-11-25T06:07:14.202Z,97074.77
2017-11-25T06:09:43.536Z,97065.31
2017-11-25T06:12:12.587Z,97074.16
2017-11-25T06:14:40.870Z,97074.56
2017-11-25T06:17:09.153Z,97068.56
2017-11-25T06:19:37.442Z,97068.65
2017-11-25T06:22:06.518Z,97066.91
2017-11-25T06:24:34.792Z,97067.52
2017-11-25T06:27:03.069Z,97070.98
2017-11-25T06:29:31.365Z,97072.23
2017-11-25T06:31:59.673Z,97070.44
2017-11-25T06:34:27.964Z,97074.70
2017-11-25T06:36:56.238Z,97072.63
2017-11-25T06:39:26.375Z,97071.75
2017-11-25T06:41:54.658Z,97079.92
2017-11-25T06:44:22.944Z,97078.48
2017-11-25T06:46:51.352Z,97070.60
2017-11-25T06:49:19.619Z,97069.59
2017-11-25T06:51:48.654Z,97066.66
2017-11-25T06:54:17.834Z,97063.57
2017-11-25T06:56:46.110Z,97075.58
2017-11-25T06:59:14.434Z,97072.50
2017-11-25T07:01:42.722Z,97081.91
2017-11-25T07:04:11.034Z,97072.84
2017-11-25T07:06:40.080Z,97084.03
2017-11-25T07:09:08.359Z,97089.98
2017-11-25T07:11:36.642Z,97098.55
2017-11-25T07:14:04.927Z,97103.08
2017-11-25T07:16:33.941Z,97113.16
2017-11-25T07:19:02.234Z,97113.11
2017-11-25T07:21:30.521Z,97110.91
2017-11-25T07:23:58.821Z,97117.79
2017-11-25T07:26:27.102Z,97121.66
2017-11-25T07:28:55.478Z,97120.29
2017-11-25T07:31:23.761Z,97112.20
2017-11-25T07:33:52.045Z,97115.98
2017-11-25T07:36:20.329Z,97118.48
2017-11-25T07:38:48.621Z,97115.98
2017-11-25T07:41:16.940Z,97120.70
2017-11-25T07:43:45.234Z,97123.55
2017-11-25T07:46:13.521Z,97137.28
2017-11-25T07:48:41.813Z,97140.36
2017-11-25T07:51:10.106Z,97139.59
2017-11-25T07:53:39.166Z,97137.30
2017-11-25T07:56:07.457Z,97135.98
2017-11-25T07:58:35.750Z,97138.73
2017-11-25T08:01:04.059Z,97134.30
2017-11-25T08:03:32.345Z,97138.93
2017-11-25T08:06:00.643Z,97149.12
2017-11-25T08:08:28.915Z,97147.78
2017-11-25T08:10:57.194Z,97156.53
2017-11-25T08:13:25.477Z,97170.12
2017-11-25T08:15:54.179Z,97168.80
2017-11-25T08:18:22.474Z,97174.47
2017-11-25T08:20:50.765Z,97167.27
2017-11-25T08:23:19.825Z,97162.16
2017-11-25T08:25:48.129Z,97164.74
2017-11-25T08:28:17.218Z,97175.27
2017-11-25T08:30:45.474Z,97178.63
2017-11-25T08:33:13.778Z,97178.59
2017-11-25T08:35:42.066Z,97187.91
2017-11-25T08:38:10.371Z,97196.37
2017-11-25T08:40:38.650Z,97203.70
2017-11-25T08:43:07.634Z,97202.42
2017-11-25T08:45:36.687Z,97204.55
2017-11-25T08:48:05.741Z,97210.05
2017-11-25T08:50:34.030Z,97179.98
2017-11-25T08:53:02.388Z,97200.74
2017-11-25T08:55:30.662Z,97211.34
2017-11-25T08:57:59.709Z,97219.37
2017-11-25T09:00:27.966Z,97235.50
2017-11-25T09:02:56.277Z,97243.11
2017-11-25T09:05:24.551Z,97235.89
2017-11-25T09:07:52.830Z,97240.13
2017-11-25T09:10:21.103Z,97252.77
2017-11-25T09:12:49.402Z,97257.92
2017-11-25T09:15:17.689Z,97254.09
2017-11-25T09:17:45.996Z,97241.41
2017-11-25T09:20:14.289Z,97238.03
2017-11-25T09:22:42.569Z,97247.77
2017-11-25T09:25:10.857Z,97241.42
2017-11-25T09:27:39.171Z,97237.97
2017-11-25T09:30:07.457Z,97232.50
2017-11-25T09:32:35.742Z,97236.31
2017-11-25T09:35:04.038Z,97245.62
2017-11-25T09:37:33.562Z,97240.55
2017-11-25T09:40:02.598Z,97241.41
2017-11-25T09:42:30.868Z,97242.27
2017-11-25T09:44:59.153Z,97253.67
2017-11-25T09:47:27.433Z,97257.53
2017-11-25T09:49:55.704Z,97262.64
2017-11-25T09:52:23.978Z,97266.85
2017-11-25T09:54:52.249Z,97272.38
2017-11-25T09:57:20.521Z,97265.55
2017-11-25T09:59:48.796Z,97265.55
2017-11-25T10:02:17.086Z,97262.17
2017-11-25T10:04:45.374Z,97263.00
2017-11-25T10:07:13.654Z,97264.30
2017-11-25T10:09:41.940Z,97262.61
2017-11-25T10:12:10.232Z,97259.63
2017-11-25T10:14:38.536Z,97253.27
2017-11-25T10:17:06.825Z,97261.33
2017-11-25T10:19:35.138Z,97261.34
2017-11-25T10:22:03.428Z,97268.98
2017-11-25T10:24:31.718Z,97271.09
2017-11-25T10:27:00.044Z,97274.49
2017-11-25T10:29:28.322Z,97277.89
2017-11-25T10:31:56.604Z,97279.56
2017-11-25T10:34:24.882Z,97274.90
2017-11-25T10:36:53.174Z,97277.44
2017-11-25T10:39:21.454Z,97281.21
2017-11-25T10:41:49.742Z,97282.91
2017-11-25T10:44:18.035Z,97278.25
2017-11-25T10:46:46.311Z,97274.88
2017-11-25T10:49:15.338Z,97284.23
2017-11-25T10:51:43.635Z,97293.14
2017-11-25T10:54:11.900Z,97291.87
2017-11-25T10:56:40.178Z,97302.06
2017-11-25T10:59:08.463Z,97304.54
2017-11-25T11:01:36.759Z,97303.67
2017-11-25T11:04:05.058Z,97313.01
2017-11-25T11:06:33.351Z,97312.58
2017-11-25T11:09:02.404Z,97315.96
2017-11-25T11:11:30.695Z,97315.50
2017-11-25T11:13:58.992Z,97319.26
2017-11-25T11:16:28.053Z,97317.58
2017-11-25T11:18:56.349Z,97312.05
2017-11-25T11:21:24.638Z,97317.02
2017-11-25T11:23:52.927Z,97332.77
2017-11-25T11:26:21.971Z,97332.78
2017-11-25T11:28:50.253Z,97335.36
2017-11-25T11:31:18.545Z,97334.55
2017-11-25T11:33:46.838Z,97343.84
2017-11-25T11:36:15.134Z,97340.47
2017-11-25T11:38:43.419Z,97343.88
2017-11-25T11:41:11.730Z,97345.61
2017-11-25T11:43:40.014Z,97350.23
2017-11-25T11:46:08.307Z,97351.48
2017-11-25T11:48:36.595Z,97355.36
2017-11-25T11:51:04.870Z,97368.09
2017-11-25T11:53:33.154Z,97374.52
2017-11-25T11:56:02.230Z,97379.22
2017-11-25T11:58:30.522Z,97387.58
2017-11-25T12:00:59.581Z,97384.59
2017-11-25T12:03:27.867Z,97391.05
2017-11-25T12:05:56.173Z,97385.53
2017-11-25T12:08:24.453Z,97380.91
2017-11-25T12:10:52.742Z,97390.64
2017-11-25T12:13:21.026Z,97387.66
2017-11-25T12:15:49.317Z,97392.64
2017-11-25T12:18:17.595Z,97388.38
2017-11-25T12:20:45.882Z,97390.14
2017-11-25T12:23:14.153Z,97392.64
2017-11-25T12:25:42.457Z,97393.48
2017-11-25T12:28:10.732Z,97397.73
2017-11-25T12:30:39.031Z,97401.09
2017-11-25T12:33:07.340Z,97403.20
2017-11-25T12:35:35.625Z,97404.89
2017-11-25T12:38:03.913Z,97404.50
2017-11-25T12:40:32.692Z,97408.73
2017-11-25T12:43:00.970Z,97411.00
2017-11-25T12:45:29.256Z,97417.52
2017-11-25T12:47:57.552Z,97417.50
2017-11-25T12:50:25.843Z,97420.96
2017-11-25T12:52:54.128Z,97418.02
2017-11-25T12:55:22.425Z,97429.55
2017-11-25T12:57:50.708Z,97437.01
2017-11-25T13:00:19.000Z,97436.89
2017-11-25T13:02:47.282Z,97444.05
2017-11-25T13:05:15.750Z,97447.95
2017-11-25T13:07:44.033Z,97453.80
2017-11-25T13:10:12.313Z,97458.33
2017-11-25T13:12:40.885Z,97457.79
2017-11-25T13:15:09.235Z,97459.48
2017-11-25T13:17:37.538Z,97461.38
2017-11-25T13:20:05.823Z,97464.45
2017-11-25T13:22:34.101Z,97472.95
2017-11-25T13:25:02.416Z,97474.74
2017-11-25T13:27:30.692Z,97478.41
2017-11-25T13:29:58.968Z,97483.09
2017-11-25T13:32:27.250Z,97487.81
2017-11-25T13:34:55.534Z,97496.77
2017-11-25T13:37:23.822Z,97503.19
2017-11-25T13:39:52.874Z,97513.02
2017-11-25T13:42:21.159Z,97530.23
2017-11-25T13:44:49.442Z,97532.63
2017-11-25T13:47:17.742Z,97530.89
2017-11-25T13:49:46.027Z,97535.21
2017-11-25T13:52:14.319Z,97543.11
2017-11-25T13:54:42.602Z,97552.91
2017-11-25T13:57:10.879Z,97551.22
2017-11-25T13:59:39.146Z,97549.84
2017-11-25T14:02:07.427Z,97553.89
2017-11-25T14:04:35.721Z,97552.88
2017-11-25T14:07:04.036Z,97560.19
2017-11-25T14:09:32.332Z,97556.03
2017-11-25T14:12:00.621Z,97560.72
2017-11-25T14:14:28.914Z,97562.80
2017-11-25T14:16:57.199Z,97569.09
2017-11-25T14:19:25.478Z,97577.80
2017-11-25T14:21:53.762Z,97586.17
2017-11-25T14:24:22.070Z,97582.94
2017-11-25T14:26:50.362Z,97586.48
2017-11-25T14:29:18.646Z,97591.08
2017-11-25T14:31:47.704Z,97587.38
2017-11-25T14:34:15.983Z,97587.91
2017-11-25T14:36:44.639Z,97591.38
2017-11-25T14:39:12.931Z,97585.16
2017-11-25T14:41:41.219Z,97593.59
2017-11-25T14:44:09.510Z,97597.92
2017-11-25T14:46:37.820Z,97608.50
2017-11-25T14:49:06.107Z,97607.69
2017-11-25T14:51:34.587Z,97608.47
2017-11-25T14:54:02.869Z,97609.34
2017-11-25T14:56:31.147Z,97612.81
2017-11-25T14:58:59.444Z,97613.20
2017-11-25T15:01:27.740Z,97614.88
2017-11-25T15:03:56.850Z,97624.21
2017-11-25T15:06:25.146Z,97626.72
2017-11-25T15:08:53.441Z,97627.42
2017-11-25T15:11:22.836Z,97626.92
2017-11-25T15:13:51.137Z,97632.00
2017-11-25T15:16:19.431Z,97632.77
2017-11-25T15:18:47.706Z,97636.22
2017-11-25T15:21:15.968Z,97632.91
2017-11-25T15:23:44.249Z,97640.08
2017-11-25T15:26:13.367Z,97635.02
2017-11-25T15:28:43.188Z,97642.91
2017-11-25T15:31:11.475Z,97644.29
2017-11-25T15:33:39.755Z,97645.98
2017-11-25T15:36:08.811Z,97654.03
2017-11-25T15:38:37.088Z,97659.03
2017-11-25T15:41:05.360Z,97658.95
2017-11-25T15:43:33.919Z,97666.60
2017-11-25T15:46:02.224Z,97669.02
2017-11-25T15:48:30.511Z,97663.13
2017-11-25T15:50:58.795Z,97676.34
2017-11-25T15:53:27.086Z,97676.77
2017-11-25T15:55:56.143Z,97677.16
2017-11-25T15:58:24.451Z,97678.49
2017-11-25T16:00:52.746Z,97685.36
2017-11-25T16:03:21.034Z,97689.11
2017-11-25T16:05:50.333Z,97695.41
2017-11-25T16:08:18.626Z,97690.32
2017-11-25T16:10:46.906Z,97700.91
2017-11-25T16:13:15.190Z,97705.57
2017-11-25T16:15:43.469Z,97708.50
2017-11-25T16:18:11.762Z,97712.70
2017-11-25T16:20:40.069Z,97719.91
2017-11-25T16:23:08.838Z,97726.25
2017-11-25T16:25:37.141Z,97728.83
2017-11-25T16:28:05.435Z,97731.23
2017-11-25T16:30:33.726Z,97740.85
2017-11-25T16:33:02.003Z,97752.58
2017-11-25T16:35:30.274Z,97752.24
2017-11-25T16:37:58.563Z,97760.55
2017-11-25T16:40:26.858Z,97762.91
2017-11-25T16:42:55.147Z,97771.42
2017-11-25T16:45:23.436Z,97774.04
2017-11-25T16:47:52.388Z,97772.05
2017-11-25T16:50:20.671Z,97772.48
2017-11-25T16:52:50.289Z,97767.36
2017-11-25T16:55:18.569Z,97770.36
2017-11-25T16:57:46.836Z,97756.77
2017-11-25T17:00:15.107Z,97762.74
2017-11-25T17:02:43.381Z,97768.25
2017-11-25T17:05:11.663Z,97758.50
2017-11-25T17:07:39.943Z,97770.15
2017-11-25T17:10:08.231Z,97767.84
2017-11-25T17:12:36.506Z,97769.96
2017-11-25T17:15:04.821Z,97773.16
2017-11-25T17:17:33.115Z,97775.83
2017-11-25T17:20:02.242Z,97773.42
2017-11-25T17:22:30.513Z,97781.14
2017-11-25T17:24:58.822Z,97786.12
2017-11-25T17:27:27.730Z,97776.72
2017-11-25T17:29:56.035Z,97781.59
2017-11-25T17:32:24.317Z,97788.16
2017-11-25T17:34:52.614Z,97788.47
2017-11-25T17:37:20.935Z,97784.41
2017-11-25T17:39:49.227Z,97784.09
2017-11-25T17:42:17.517Z,97788.33
2017-11-25T17:44:45.797Z,97787.69
2017-11-25T17:47:14.079Z,97794.43
2017-11-25T17:49:42.373Z,97797.09
2017-11-25T17:52:10.661Z,97806.86
2017-11-25T17:54:38.936Z,97807.73
2017-11-25T17:57:07.227Z,97800.66
2017-11-25T17:59:35.532Z,97809.05
2017-11-25T18:02:03.812Z,97805.44
2017-11-25T18:04:32.109Z,97808.24
2017-11-25T18:07:00.393Z,97806.87
2017-11-25T18:09:28.672Z,97817.86
2017-11-25T18:11:58.979Z,97818.12
2017-11-25T18:14:27.280Z,97818.83
2017-11-25T18:16:55.577Z,97821.31
2017-11-25T18:19:23.883Z,97821.49
2017-11-25T18:21:52.967Z,97828.85
2017-11-25T18:24:21.262Z,97828.22
2017-11-25T18:26:49.582Z,97830.49
2017-11-25T18:29:18.080Z,97837.61
2017-11-25T18:31:46.502Z,97836.47
2017-11-25T18:34:14.828Z,97852.55
2017-11-25T18:36:43.135Z,97856.19
2017-11-25T18:39:12.192Z,97857.75
2017-11-25T18:41:40.477Z,97864.11
2017-11-25T18:44:09.547Z,97861.52
2017-11-25T18:46:37.846Z,97864.92
2017-11-25T18:49:06.131Z,97863.74
2017-11-25T18:51:34.427Z,97856.75
2017-11-25T18:54:02.757Z,97856.27
2017-11-25T18:56:31.066Z,97869.11
2017-11-25T18:58:59.418Z,97868.08
2017-11-25T19:01:27.739Z,97872.06
2017-11-25T19:03:56.042Z,97872.54
2017-11-25T19:06:24.338Z,97872.11
2017-11-25T19:08:52.679Z,97879.80
2017-11-25T19:11:21.739Z,97876.70
2017-11-25T19:13:50.038Z,97884.86
2017-11-25T19:16:19.095Z,97891.06
2017-11-25T19:18:47.403Z,97896.89
2017-11-25T19:21:17.568Z,97900.05
2017-11-25T19:23:45.877Z,97904.85
2017-11-25T19:26:14.225Z,97922.66
2017-11-25T19:28:42.574Z,97925.42
2017-11-25T19:31:10.922Z,97928.57
2017-11-25T19:33:39.235Z,97921.03
2017-11-25T19:36:08.823Z,97923.76
2017-11-25T19:38:37.608Z,97928.89
2017-11-25T19:41:06.177Z,97923.48
2017-11-25T19:43:35.148Z,97924.19
2017-11-25T19:46:05.015Z,97927.21
2017-11-25T19:48:33.958Z,97926.73
2017-11-25T19:51:03.267Z,97931.20
2017-11-25T19:53:31.750Z,97932.52
2017-11-25T19:56:00.516Z,97931.22
2017-11-25T19:58:29.232Z,97935.49
2017-11-25T20:00:58.732Z,97935.20
2017-11-25T20:03:27.700Z,97932.36
2017-11-25T20:05:56.716Z,97941.17
2017-11-25T20:08:26.475Z,97944.25
2017-11-25T20:10:56.090Z,97946.20
2017-11-25T20:13:25.658Z,97945.27
2017-11-25T20:15:55.431Z,97945.77
2017-11-25T20:18:25.160Z,97952.97
2017-11-25T20:20:54.938Z,97957.81
2017-11-25T20:23:24.831Z,97969.59
2017-11-25T20:25:54.500Z,97968.78
2017-11-25T20:28:24.475Z,97967.94
2017-11-25T20:30:54.200Z,97976.10
2017-11-25T20:33:24.042Z,97981.30
2017-11-25T20:35:54.612Z,97995.87
2017-11-25T20:38:28.575Z,97994.44
2017-11-25T20:40:58.349Z,97987.56
2017-11-25T20:43:28.196Z,97994.72
2017-11-25T20:45:58.021Z,97997.51
2017-11-25T20:48:27.808Z,97989.58
2017-11-25T20:50:57.727Z,97991.83
2017-11-25T20:53:27.512Z,97996.19
2017-11-25T20:55:57.466Z,97987.89
2017-11-25T20:58:27.307Z,97993.66
2017-11-25T21:00:57.068Z,97988.33
2017-11-25T21:03:26.765Z,97999.33
2017-11-25T21:05:57.300Z,97998.33
2017-11-25T21:08:27.058Z,98010.25
2017-11-25T21:10:56.871Z,98013.22
2017-11-25T21:13:26.517Z,98012.18
2017-11-25T21:15:56.971Z,98019.28
2017-11-25T21:18:26.724Z,98024.56
2017-11-25T21:20:56.461Z,98028.20
2017-11-25T21:23:25.952Z,98033.48
2017-11-25T21:25:55.627Z,98036.86
2017-11-25T21:28:25.010Z,98030.12
2017-11-25T21:30:54.700Z,98039.03
2017-11-25T21:33:24.422Z,98035.48
2017-11-25T21:35:54.047Z,98035.49
2017-11-25T21:38:23.537Z,98035.69
2017-11-25T21:40:54.474Z,98042.83
2017-11-25T21:43:25.901Z,98040.54
2017-11-25T21:45:54.602Z,98045.27
2017-11-25T21:48:22.926Z,98043.95
2017-11-25T21:50:51.264Z,98044.84
2017-11-25T21:53:19.568Z,98046.70
2017-11-25T21:55:47.861Z,98048.33
2017-11-25T21:58:16.173Z,98045.67
2017-11-25T22:00:44.486Z,98047.48
2017-11-25T22:03:12.773Z,98047.56
2017-11-25T22:05:41.058Z,98053.03
2017-11-25T22:08:09.351Z,98043.50
2017-11-25T22:10:38.427Z,98054.73
2017-11-25T22:13:06.732Z,98056.37
2017-11-25T22:15:35.026Z,98053.23
2017-11-25T22:18:03.321Z,98063.18
2017-11-25T22:20:31.602Z,98068.09
2017-11-25T22:22:59.886Z,98070.42
2017-11-25T22:25:28.166Z,98065.91
2017-11-25T22:27:56.462Z,98070.48
2017-11-25T22:30:24.745Z,98058.86
2017-11-25T22:32:55.416Z,98070.11
2017-11-25T22:35:23.715Z,98079.48
2017-11-25T22:37:52.021Z,98083.23
2017-11-25T22:40:20.678Z,98092.52
2017-11-25T22:42:48.964Z,98087.11
2017-11-25T22:45:18.751Z,98091.73
2017-11-25T22:47:47.051Z,98087.46
2017-11-25T22:50:15.339Z,98080.42
2017-11-25T22:52:43.627Z,98079.67
2017-11-25T22:55:11.935Z,98062.03
2017-11-25T22:57:40.231Z,98079.42
2017-11-25T23:00:08.572Z,98080.66
2017-11-25T23:02:36.861Z,98077.25
2017-11-25T23:05:05.139Z,98080.56
2017-11-25T23:07:33.434Z,98085.72
2017-11-25T23:10:01.714Z,98090.36
2017-11-25T23:12:29.989Z,98094.13
2017-11-25T23:14:58.282Z,98096.25
2017-11-25T23:17:26.570Z,98091.20
2017-11-25T23:19:55.637Z,98092.33
2017-11-25T23:22:23.913Z,98095.03
2017-11-25T23:24:52.197Z,98094.42
2017-11-25T23:27:20.490Z,98096.01
2017-11-25T23:29:48.770Z,98096.11
2017-11-25T23:32:17.057Z,98091.04
2017-11-25T23:34:45.356Z,98092.33
2017-11-25T23:37:14.412Z,98093.73
2017-11-25T23:39:42.704Z,98102.09
2017-11-25T23:42:10.990Z,98098.46
2017-11-25T23:44:39.277Z,98111.28
2017-11-25T23:47:07.562Z,98104.22
2017-11-25T23:49:36.626Z,98106.52
2017-11-25T23:52:04.906Z,98100.93
2017-11-25T23:54:33.198Z,98097.97
2017-11-25T23:57:01.496Z,98100.66
2017-11-25T23:59:29.811Z,98093.98
